Nichioh Maru — JD3267 — position and weather

sailwx.info

Track history (hours):
 
Tides and Currents Weather Stations Pressure Air Temp Water Temp Dewpoint Dewpoint Depression Visibility Wind Speed Wind Dir Waves Ship Positions

Nichioh Maru

Last reported at 2014-Jul-24 22:33 UTC. Time now 2014-Jul-24 23:02 UTC.
Position N 34°40' E 135°14'.

Length 170 m; draft 6.5 m.

Type: Cargo ship. MMSI: 431003232.

Date/timePositionNaut miles runAvg speedWind from/ knotsBaromVisibWave heightAir tempDewpointWater temp
2014-Jul-24 22:33N 34°40' E 135°14'4 3.9
2014-Jul-24 21:31N 34°36' E 135°16'0 0.0
2014-Jul-24 20:28N 34°36' E 135°16'0 0.0
2014-Jul-24 19:28N 34°36' E 135°16'0 0.0
2014-Jul-24 18:25N 34°36' E 135°16'0 0.0
2014-Jul-24 17:28N 34°36' E 135°16'0 0.0
2014-Jul-24 16:28N 34°36' E 135°16'0 0.0
2014-Jul-24 15:28N 34°36' E 135°16'0 0.0
2014-Jul-24 14:34N 34°36' E 135°16'0 0.0
2014-Jul-24 12:28N 34°37' E 135°16'0 0.0
2014-Jul-24 11:28N 34°37' E 135°16'0 0.0
2014-Jul-24 10:34N 34°37' E 135°16'0 0.0
2014-Jul-24 09:33N 34°37' E 135°16'1211.7
2014-Jul-24 08:33N 34°37' E 135°02'120 9.0
2014-Jul-23 19:18N 33°59' E 132°44'2312.3
2014-Jul-23 17:26N 33°44' E 132°23'8 0.5
2014-Jul-23 03:07N 33°50' E 132°17'1219.3
2014-Jul-23 02:28N 33°57' E 132°29'1819.5
2014-Jul-23 01:33N 34°14' E 132°21'7 7.2
2014-Jul-23 00:31N 34°21' E 132°22'0 0.0
2014-Jul-22 23:31N 34°21' E 132°22'0 0.0
2014-Jul-22 22:31N 34°21' E 132°22'0 0.0
2014-Jul-22 21:31N 34°21' E 132°22'1 0.8
2014-Jul-22 20:33N 34°20' E 132°22'0 0.0
2014-Jul-22 19:33N 34°20' E 132°22'0 0.0
2014-Jul-22 18:33N 34°20' E 132°22'0 0.0
2014-Jul-22 17:33N 34°20' E 132°22'0 0.0
2014-Jul-22 16:33N 34°20' E 132°22'0 0.0
2014-Jul-22 15:33N 34°20' E 132°22'0 0.0
2014-Jul-22 14:30N 34°20' E 132°22'0 0.0
2014-Jul-22 13:33N 34°20' E 132°22'0 0.0
2014-Jul-22 12:33N 34°20' E 132°22'0 0.1
2014-Jul-22 11:33N 34°20' E 132°22'127 3.8
2014-Jul-21 02:32N 34°36' E 134°54'1717.6
2014-Jul-21 01:33N 34°38' E 135°15'3 2.8
2014-Jul-21 00:22N 34°41' E 135°13'0 0.0
2014-Jul-20 23:33N 34°41' E 135°13'2 1.8
2014-Jul-20 22:33N 34°40' E 135°15'1313.2
2014-Jul-20 21:33N 34°28' E 135°08'1717.3
2014-Jul-20 20:33N 34°12' E 134°59'211 7.8
2014-Jul-19 17:23N 34°47' E 139°12'1315.7
2014-Jul-19 16:32N 34°55' E 139°25'1717.0
2014-Jul-19 15:33N 35°05' E 139°41'1413.6
2014-Jul-19 14:33N 35°19' E 139°44'1212.1
2014-Jul-19 13:33N 35°30' E 139°47'1 0.7
2014-Jul-19 12:32N 35°30' E 139°46'0 0.0
2014-Jul-19 11:32N 35°30' E 139°46'0 0.0
2014-Jul-19 10:31N 35°30' E 139°46'0 0.0
2014-Jul-19 09:32N 35°30' E 139°46'0 0.0
2014-Jul-19 08:29N 35°30' E 139°46'0 0.0
2014-Jul-19 07:31N 35°30' E 139°46'0 0.0
2014-Jul-19 06:31N 35°30' E 139°46'0 0.0
2014-Jul-19 05:32N 35°30' E 139°46'2 2.1
2014-Jul-19 04:34N 35°30' E 139°43'1010.2
2014-Jul-19 03:34N 35°19' E 139°43'4 3.5
2014-Jul-19 02:33N 35°19' E 139°39'0 0.0
2014-Jul-19 01:33N 35°19' E 139°39'0 0.0
2014-Jul-19 00:32N 35°19' E 139°39'0 0.0
2014-Jul-18 23:33N 35°19' E 139°39'5 4.8
2014-Jul-18 22:33N 35°18' E 139°45'1312.7
2014-Jul-18 21:33N 35°05' E 139°44'1717.3
2014-Jul-18 20:33N 34°51' E 139°32'23116.4
2014-Jul-18 06:29N 33°59' E 134°59'1819.8
2014-Jul-18 05:33N 34°18' E 134°59'1919.3
2014-Jul-18 04:33N 34°34' E 135°11'7 7.0
2014-Jul-18 03:33N 34°41' E 135°13'0 0.0
2014-Jul-18 02:33N 34°41' E 135°13'0 0.0
2014-Jul-18 01:33N 34°41' E 135°13'0 0.0
2014-Jul-18 00:34N 34°41' E 135°13'1 0.7
2014-Jul-17 23:34N 34°41' E 135°14'1212.0
2014-Jul-17 22:33N 34°37' E 135°00'  
2014-Jul-15 04:31N 34°37' E 134°58'1313.2
2014-Jul-15 03:33N 34°37' E 135°14'3 3.2
2014-Jul-15 02:31N 34°41' E 135°13'0 0.0
2014-Jul-15 01:25N 34°41' E 135°13'0 0.0
2014-Jul-15 00:31N 34°41' E 135°13'0 0.0
2014-Jul-14 23:31N 34°41' E 135°13'  
Track history (hours):
 
Tides and Currents Weather Stations Pressure Air Temp Water Temp Dewpoint Dewpoint Depression Visibility Wind Speed Wind Dir Waves Ship Positions

Nichioh Maru

Last reported at 2014-Jul-24 22:33 UTC. Time now 2014-Jul-24 23:02 UTC.
Position N 34°40' E 135°14'.

Length 170 m; draft 6.5 m.

Type: Cargo ship. MMSI: 431003232.

Date/timePositionNaut miles runAvg speedWind from/ knotsBaromVisibWave heightAir tempDewpointWater temp
2014-Jul-24 22:33N 34°40' E 135°14'4 3.9
2014-Jul-24 21:31N 34°36' E 135°16'0 0.0
2014-Jul-24 20:28N 34°36' E 135°16'0 0.0
2014-Jul-24 19:28N 34°36' E 135°16'0 0.0
2014-Jul-24 18:25N 34°36' E 135°16'0 0.0
2014-Jul-24 17:28N 34°36' E 135°16'0 0.0
2014-Jul-24 16:28N 34°36' E 135°16'0 0.0
2014-Jul-24 15:28N 34°36' E 135°16'0 0.0
2014-Jul-24 14:34N 34°36' E 135°16'0 0.0
2014-Jul-24 12:28N 34°37' E 135°16'0 0.0
2014-Jul-24 11:28N 34°37' E 135°16'0 0.0
2014-Jul-24 10:34N 34°37' E 135°16'0 0.0
2014-Jul-24 09:33N 34°37' E 135°16'1211.7
2014-Jul-24 08:33N 34°37' E 135°02'120 9.0
2014-Jul-23 19:18N 33°59' E 132°44'2312.3
2014-Jul-23 17:26N 33°44' E 132°23'8 0.5
2014-Jul-23 03:07N 33°50' E 132°17'1219.3
2014-Jul-23 02:28N 33°57' E 132°29'1819.5
2014-Jul-23 01:33N 34°14' E 132°21'7 7.2
2014-Jul-23 00:31N 34°21' E 132°22'0 0.0
2014-Jul-22 23:31N 34°21' E 132°22'0 0.0
2014-Jul-22 22:31N 34°21' E 132°22'0 0.0
2014-Jul-22 21:31N 34°21' E 132°22'1 0.8
2014-Jul-22 20:33N 34°20' E 132°22'0 0.0
2014-Jul-22 19:33N 34°20' E 132°22'0 0.0
2014-Jul-22 18:33N 34°20' E 132°22'0 0.0
2014-Jul-22 17:33N 34°20' E 132°22'0 0.0
2014-Jul-22 16:33N 34°20' E 132°22'0 0.0
2014-Jul-22 15:33N 34°20' E 132°22'0 0.0
2014-Jul-22 14:30N 34°20' E 132°22'0 0.0
2014-Jul-22 13:33N 34°20' E 132°22'0 0.0
2014-Jul-22 12:33N 34°20' E 132°22'0 0.1
2014-Jul-22 11:33N 34°20' E 132°22'127 3.8
2014-Jul-21 02:32N 34°36' E 134°54'1717.6
2014-Jul-21 01:33N 34°38' E 135°15'3 2.8
2014-Jul-21 00:22N 34°41' E 135°13'0 0.0
2014-Jul-20 23:33N 34°41' E 135°13'2 1.8
2014-Jul-20 22:33N 34°40' E 135°15'1313.2
2014-Jul-20 21:33N 34°28' E 135°08'1717.3
2014-Jul-20 20:33N 34°12' E 134°59'211 7.8
2014-Jul-19 17:23N 34°47' E 139°12'1315.7
2014-Jul-19 16:32N 34°55' E 139°25'1717.0
2014-Jul-19 15:33N 35°05' E 139°41'1413.6
2014-Jul-19 14:33N 35°19' E 139°44'1212.1
2014-Jul-19 13:33N 35°30' E 139°47'1 0.7
2014-Jul-19 12:32N 35°30' E 139°46'0 0.0
2014-Jul-19 11:32N 35°30' E 139°46'0 0.0
2014-Jul-19 10:31N 35°30' E 139°46'0 0.0
2014-Jul-19 09:32N 35°30' E 139°46'0 0.0
2014-Jul-19 08:29N 35°30' E 139°46'0 0.0
2014-Jul-19 07:31N 35°30' E 139°46'0 0.0
2014-Jul-19 06:31N 35°30' E 139°46'0 0.0
2014-Jul-19 05:32N 35°30' E 139°46'2 2.1
2014-Jul-19 04:34N 35°30' E 139°43'1010.2
2014-Jul-19 03:34N 35°19' E 139°43'4 3.5
2014-Jul-19 02:33N 35°19' E 139°39'0 0.0
2014-Jul-19 01:33N 35°19' E 139°39'0 0.0
2014-Jul-19 00:32N 35°19' E 139°39'0 0.0
2014-Jul-18 23:33N 35°19' E 139°39'5 4.8
2014-Jul-18 22:33N 35°18' E 139°45'1312.7
2014-Jul-18 21:33N 35°05' E 139°44'1717.3
2014-Jul-18 20:33N 34°51' E 139°32'23116.4
2014-Jul-18 06:29N 33°59' E 134°59'1819.8
2014-Jul-18 05:33N 34°18' E 134°59'1919.3
2014-Jul-18 04:33N 34°34' E 135°11'7 7.0
2014-Jul-18 03:33N 34°41' E 135°13'0 0.0
2014-Jul-18 02:33N 34°41' E 135°13'0 0.0
2014-Jul-18 01:33N 34°41' E 135°13'0 0.0
2014-Jul-18 00:34N 34°41' E 135°13'1 0.7
2014-Jul-17 23:34N 34°41' E 135°14'1212.0
2014-Jul-17 22:33N 34°37' E 135°00'  
2014-Jul-15 04:31N 34°37' E 134°58'1313.2
2014-Jul-15 03:33N 34°37' E 135°14'3 3.2
2014-Jul-15 02:31N 34°41' E 135°13'0 0.0
2014-Jul-15 01:25N 34°41' E 135°13'0 0.0
2014-Jul-15 00:31N 34°41' E 135°13'0 0.0
2014-Jul-14 23:31N 34°41' E 135°13'  

Dump ship's entire track history